Blanchardville, Wisconsin
Current Conditions -  °F | °C
As of 6:35 PM on Sunday 21 Dec 2014 (Local Time) from KEFT Reporting Station
Overcast Overcast  
Wind Chill: 24°   Ceiling: 3100
Heat Index: 34°   Visibility: 10mi
Dew Point: 32°   Wind: 15mph
Humidity: 93%   Direction: 160°SSE
Pressure: 29.96"   Gusts: 21mph
Location:  42.81°N, 89.86°W
Report Text: KEFT 220035Z AUTO 16013G18KT 10SM OVC031 01/00 A2996 RMK AO2
Loading
Personal Weather Stations






























Interactive Weather Map New forecast layout! Learn more

10-Day Weather Forecast

Advertisements
Track Severe Weather on mobile